sensor_id;sensor_type;location;lat;lon;timestamp;P1;durP1;ratioP1;P2;durP2;ratioP2
8102;SDS011;4094;49.948;11.574;2023-05-24T00:00:56;7.30;;;6.60;;
8102;SDS011;4094;49.948;11.574;2023-05-24T00:03:26;8.07;;;6.90;;
8102;SDS011;4094;49.948;11.574;2023-05-24T00:05:57;8.97;;;6.97;;
8102;SDS011;4094;49.948;11.574;2023-05-24T00:08:26;11.37;;;6.57;;
8102;SDS011;4094;49.948;11.574;2023-05-24T00:10:56;9.50;;;7.13;;
8102;SDS011;4094;49.948;11.574;2023-05-24T00:13:26;8.47;;;6.27;;
8102;SDS011;4094;49.948;11.574;2023-05-24T00:15:55;9.23;;;6.67;;
8102;SDS011;4094;49.948;11.574;2023-05-24T00:18:24;8.37;;;6.50;;
8102;SDS011;4094;49.948;11.574;2023-05-24T00:20:53;10.70;;;6.63;;
8102;SDS011;4094;49.948;11.574;2023-05-24T00:23:23;9.73;;;6.70;;
8102;SDS011;4094;49.948;11.574;2023-05-24T00:25:52;10.07;;;7.27;;
8102;SDS011;4094;49.948;11.574;2023-05-24T00:28:23;10.33;;;6.97;;
8102;SDS011;4094;49.948;11.574;2023-05-24T00:30:52;10.70;;;6.93;;
8102;SDS011;4094;49.948;11.574;2023-05-24T00:33:22;9.37;;;7.00;;
8102;SDS011;4094;49.948;11.574;2023-05-24T00:35:51;8.67;;;6.80;;
8102;SDS011;4094;49.948;11.574;2023-05-24T00:38:23;7.60;;;6.40;;
8102;SDS011;4094;49.948;11.574;2023-05-24T00:40:52;10.80;;;6.83;;
8102;SDS011;4094;49.948;11.574;2023-05-24T00:43:25;8.30;;;6.90;;
8102;SDS011;4094;49.948;11.574;2023-05-24T00:45:58;7.73;;;6.87;;
8102;SDS011;4094;49.948;11.574;2023-05-24T00:48:41;10.57;;;7.37;;
8102;SDS011;4094;49.948;11.574;2023-05-24T00:51:11;7.93;;;6.70;;
8102;SDS011;4094;49.948;11.574;2023-05-24T00:53:41;9.83;;;7.23;;
8102;SDS011;4094;49.948;11.574;2023-05-24T00:56:13;11.90;;;7.10;;
8102;SDS011;4094;49.948;11.574;2023-05-24T00:58:45;8.53;;;6.73;;
8102;SDS011;4094;49.948;11.574;2023-05-24T01:01:16;8.80;;;7.10;;
8102;SDS011;4094;49.948;11.574;2023-05-24T01:03:46;11.97;;;7.53;;
8102;SDS011;4094;49.948;11.574;2023-05-24T01:06:15;8.90;;;6.47;;
8102;SDS011;4094;49.948;11.574;2023-05-24T01:08:49;7.70;;;6.90;;
8102;SDS011;4094;49.948;11.574;2023-05-24T01:11:42;9.77;;;7.33;;
8102;SDS011;4094;49.948;11.574;2023-05-24T01:14:21;13.03;;;7.27;;
8102;SDS011;4094;49.948;11.574;2023-05-24T01:16:55;13.10;;;6.97;;
8102;SDS011;4094;49.948;11.574;2023-05-24T01:19:39;9.93;;;7.47;;
8102;SDS011;4094;49.948;11.574;2023-05-24T01:22:23;9.93;;;7.40;;
8102;SDS011;4094;49.948;11.574;2023-05-24T01:25:16;11.90;;;7.37;;
8102;SDS011;4094;49.948;11.574;2023-05-24T01:27:56;9.43;;;6.80;;
8102;SDS011;4094;49.948;11.574;2023-05-24T01:30:27;9.63;;;7.27;;
8102;SDS011;4094;49.948;11.574;2023-05-24T01:32:56;10.03;;;6.97;;
8102;SDS011;4094;49.948;11.574;2023-05-24T01:35:26;7.53;;;6.10;;
8102;SDS011;4094;49.948;11.574;2023-05-24T01:37:55;11.67;;;7.40;;
8102;SDS011;4094;49.948;11.574;2023-05-24T01:40:24;12.30;;;7.07;;
8102;SDS011;4094;49.948;11.574;2023-05-24T01:42:55;10.47;;;6.80;;
8102;SDS011;4094;49.948;11.574;2023-05-24T01:45:32;11.03;;;6.80;;
8102;SDS011;4094;49.948;11.574;2023-05-24T01:48:12;9.47;;;6.63;;
8102;SDS011;4094;49.948;11.574;2023-05-24T01:50:47;12.93;;;7.33;;
8102;SDS011;4094;49.948;11.574;2023-05-24T01:53:19;9.07;;;7.10;;
8102;SDS011;4094;49.948;11.574;2023-05-24T01:55:52;10.07;;;6.53;;
8102;SDS011;4094;49.948;11.574;2023-05-24T01:58:24;11.17;;;7.03;;
8102;SDS011;4094;49.948;11.574;2023-05-24T02:00:54;8.77;;;7.00;;
8102;SDS011;4094;49.948;11.574;2023-05-24T02:03:24;10.27;;;7.17;;
8102;SDS011;4094;49.948;11.574;2023-05-24T02:05:53;8.87;;;6.47;;
8102;SDS011;4094;49.948;11.574;2023-05-24T02:08:22;9.57;;;7.27;;
8102;SDS011;4094;49.948;11.574;2023-05-24T02:10:52;8.90;;;7.70;;
8102;SDS011;4094;49.948;11.574;2023-05-24T02:13:21;10.93;;;7.17;;
8102;SDS011;4094;49.948;11.574;2023-05-24T02:15:51;10.50;;;6.83;;
8102;SDS011;4094;49.948;11.574;2023-05-24T02:18:21;11.33;;;7.27;;
8102;SDS011;4094;49.948;11.574;2023-05-24T02:20:50;10.03;;;7.23;;
8102;SDS011;4094;49.948;11.574;2023-05-24T02:23:19;13.43;;;7.47;;
8102;SDS011;4094;49.948;11.574;2023-05-24T02:25:48;10.30;;;7.63;;
8102;SDS011;4094;49.948;11.574;2023-05-24T02:28:17;9.73;;;7.23;;
8102;SDS011;4094;49.948;11.574;2023-05-24T02:30:46;8.90;;;7.13;;
8102;SDS011;4094;49.948;11.574;2023-05-24T02:33:17;12.63;;;7.70;;
8102;SDS011;4094;49.948;11.574;2023-05-24T02:35:46;10.30;;;7.07;;
8102;SDS011;4094;49.948;11.574;2023-05-24T02:38:16;8.50;;;6.70;;
8102;SDS011;4094;49.948;11.574;2023-05-24T02:40:45;8.87;;;7.43;;
8102;SDS011;4094;49.948;11.574;2023-05-24T02:43:15;10.80;;;7.17;;
8102;SDS011;4094;49.948;11.574;2023-05-24T02:45:44;8.57;;;7.37;;
8102;SDS011;4094;49.948;11.574;2023-05-24T02:48:13;8.93;;;7.07;;
8102;SDS011;4094;49.948;11.574;2023-05-24T02:50:44;9.10;;;6.70;;
8102;SDS011;4094;49.948;11.574;2023-05-24T02:53:13;8.73;;;6.80;;
8102;SDS011;4094;49.948;11.574;2023-05-24T02:55:42;8.93;;;6.53;;
8102;SDS011;4094;49.948;11.574;2023-05-24T02:58:13;9.23;;;6.90;;
8102;SDS011;4094;49.948;11.574;2023-05-24T03:00:46;10.97;;;7.07;;
8102;SDS011;4094;49.948;11.574;2023-05-24T03:03:16;8.67;;;7.53;;
8102;SDS011;4094;49.948;11.574;2023-05-24T03:05:47;11.83;;;7.13;;
8102;SDS011;4094;49.948;11.574;2023-05-24T03:08:16;8.90;;;7.07;;
8102;SDS011;4094;49.948;11.574;2023-05-24T03:10:45;10.73;;;7.43;;
8102;SDS011;4094;49.948;11.574;2023-05-24T03:13:14;9.10;;;6.90;;
8102;SDS011;4094;49.948;11.574;2023-05-24T03:15:44;9.50;;;8.07;;
8102;SDS011;4094;49.948;11.574;2023-05-24T03:18:13;12.07;;;7.53;;
8102;SDS011;4094;49.948;11.574;2023-05-24T03:20:44;10.20;;;7.23;;
8102;SDS011;4094;49.948;11.574;2023-05-24T03:23:14;10.83;;;7.10;;
8102;SDS011;4094;49.948;11.574;2023-05-24T03:25:44;8.43;;;7.13;;
8102;SDS011;4094;49.948;11.574;2023-05-24T03:28:13;9.50;;;7.10;;
8102;SDS011;4094;49.948;11.574;2023-05-24T03:30:43;9.40;;;7.70;;
8102;SDS011;4094;49.948;11.574;2023-05-24T03:33:13;11.87;;;7.27;;
8102;SDS011;4094;49.948;11.574;2023-05-24T03:35:43;11.30;;;7.30;;
8102;SDS011;4094;49.948;11.574;2023-05-24T03:38:12;8.87;;;6.90;;
8102;SDS011;4094;49.948;11.574;2023-05-24T03:40:45;9.43;;;7.23;;
8102;SDS011;4094;49.948;11.574;2023-05-24T03:43:18;10.20;;;7.60;;
8102;SDS011;4094;49.948;11.574;2023-05-24T03:45:52;8.60;;;7.27;;
8102;SDS011;4094;49.948;11.574;2023-05-24T03:48:21;9.07;;;7.33;;
8102;SDS011;4094;49.948;11.574;2023-05-24T03:50:51;10.10;;;7.67;;
8102;SDS011;4094;49.948;11.574;2023-05-24T03:53:21;9.40;;;7.23;;
8102;SDS011;4094;49.948;11.574;2023-05-24T03:55:51;13.30;;;7.90;;
8102;SDS011;4094;49.948;11.574;2023-05-24T03:58:21;9.33;;;6.87;;
8102;SDS011;4094;49.948;11.574;2023-05-24T04:00:51;11.27;;;7.27;;
8102;SDS011;4094;49.948;11.574;2023-05-24T04:03:21;9.13;;;7.87;;
8102;SDS011;4094;49.948;11.574;2023-05-24T04:05:52;10.10;;;7.40;;
8102;SDS011;4094;49.948;11.574;2023-05-24T04:08:21;9.23;;;7.57;;
8102;SDS011;4094;49.948;11.574;2023-05-24T04:10:52;11.20;;;7.37;;
8102;SDS011;4094;49.948;11.574;2023-05-24T04:13:21;10.67;;;7.67;;
8102;SDS011;4094;49.948;11.574;2023-05-24T04:15:50;9.37;;;7.23;;
8102;SDS011;4094;49.948;11.574;2023-05-24T04:18:19;12.27;;;8.03;;
8102;SDS011;4094;49.948;11.574;2023-05-24T04:20:49;12.77;;;6.97;;
8102;SDS011;4094;49.948;11.574;2023-05-24T04:23:19;14.60;;;7.80;;
8102;SDS011;4094;49.948;11.574;2023-05-24T04:25:48;9.97;;;7.70;;
8102;SDS011;4094;49.948;11.574;2023-05-24T04:28:20;9.80;;;7.43;;
8102;SDS011;4094;49.948;11.574;2023-05-24T04:30:51;10.10;;;7.37;;
8102;SDS011;4094;49.948;11.574;2023-05-24T04:33:23;9.33;;;7.13;;
8102;SDS011;4094;49.948;11.574;2023-05-24T04:35:52;13.40;;;7.90;;
8102;SDS011;4094;49.948;11.574;2023-05-24T04:38:22;11.67;;;7.90;;
8102;SDS011;4094;49.948;11.574;2023-05-24T04:40:51;8.93;;;7.00;;
8102;SDS011;4094;49.948;11.574;2023-05-24T04:43:22;10.37;;;7.47;;
8102;SDS011;4094;49.948;11.574;2023-05-24T04:45:52;9.80;;;7.23;;
8102;SDS011;4094;49.948;11.574;2023-05-24T04:48:22;10.50;;;7.53;;
8102;SDS011;4094;49.948;11.574;2023-05-24T04:50:52;10.07;;;7.77;;
8102;SDS011;4094;49.948;11.574;2023-05-24T04:53:22;9.20;;;7.57;;
8102;SDS011;4094;49.948;11.574;2023-05-24T04:55:52;8.47;;;7.23;;
8102;SDS011;4094;49.948;11.574;2023-05-24T04:58:22;13.73;;;7.43;;
8102;SDS011;4094;49.948;11.574;2023-05-24T05:00:51;11.53;;;8.03;;
8102;SDS011;4094;49.948;11.574;2023-05-24T05:03:20;8.50;;;7.60;;
8102;SDS011;4094;49.948;11.574;2023-05-24T05:05:50;10.77;;;7.60;;
8102;SDS011;4094;49.948;11.574;2023-05-24T05:08:19;10.87;;;7.43;;
8102;SDS011;4094;49.948;11.574;2023-05-24T05:10:49;10.57;;;7.70;;
8102;SDS011;4094;49.948;11.574;2023-05-24T05:13:18;10.20;;;7.23;;
8102;SDS011;4094;49.948;11.574;2023-05-24T05:15:52;10.07;;;7.50;;
8102;SDS011;4094;49.948;11.574;2023-05-24T05:18:21;7.83;;;6.93;;
8102;SDS011;4094;49.948;11.574;2023-05-24T05:20:50;10.73;;;7.07;;
8102;SDS011;4094;49.948;11.574;2023-05-24T05:23:20;10.17;;;7.70;;
8102;SDS011;4094;49.948;11.574;2023-05-24T05:25:49;10.43;;;7.13;;
8102;SDS011;4094;49.948;11.574;2023-05-24T05:28:21;13.73;;;7.50;;
8102;SDS011;4094;49.948;11.574;2023-05-24T05:30:52;13.63;;;7.83;;
8102;SDS011;4094;49.948;11.574;2023-05-24T05:33:23;9.90;;;7.57;;
8102;SDS011;4094;49.948;11.574;2023-05-24T05:35:52;10.33;;;7.23;;
8102;SDS011;4094;49.948;11.574;2023-05-24T05:38:21;8.93;;;7.53;;
8102;SDS011;4094;49.948;11.574;2023-05-24T05:40:50;7.97;;;7.10;;
8102;SDS011;4094;49.948;11.574;2023-05-24T05:43:20;8.30;;;7.43;;
8102;SDS011;4094;49.948;11.574;2023-05-24T05:45:49;10.30;;;7.27;;
8102;SDS011;4094;49.948;11.574;2023-05-24T05:48:22;9.00;;;7.20;;
8102;SDS011;4094;49.948;11.574;2023-05-24T05:50:52;10.37;;;7.70;;
8102;SDS011;4094;49.948;11.574;2023-05-24T05:53:21;10.83;;;7.03;;
8102;SDS011;4094;49.948;11.574;2023-05-24T05:55:52;11.40;;;7.50;;
8102;SDS011;4094;49.948;11.574;2023-05-24T05:58:21;9.23;;;7.97;;
8102;SDS011;4094;49.948;11.574;2023-05-24T06:00:50;11.77;;;7.57;;
8102;SDS011;4094;49.948;11.574;2023-05-24T06:03:20;9.23;;;7.33;;
8102;SDS011;4094;49.948;11.574;2023-05-24T06:05:50;12.33;;;7.40;;
8102;SDS011;4094;49.948;11.574;2023-05-24T06:08:20;9.93;;;6.63;;
8102;SDS011;4094;49.948;11.574;2023-05-24T06:10:49;11.27;;;7.53;;
8102;SDS011;4094;49.948;11.574;2023-05-24T06:13:19;9.03;;;7.30;;
8102;SDS011;4094;49.948;11.574;2023-05-24T06:15:49;9.60;;;7.37;;
8102;SDS011;4094;49.948;11.574;2023-05-24T06:18:22;7.37;;;6.67;;
8102;SDS011;4094;49.948;11.574;2023-05-24T06:20:53;10.90;;;7.13;;
8102;SDS011;4094;49.948;11.574;2023-05-24T06:23:22;13.07;;;7.27;;
8102;SDS011;4094;49.948;11.574;2023-05-24T06:25:51;8.93;;;7.53;;
8102;SDS011;4094;49.948;11.574;2023-05-24T06:28:21;8.93;;;7.23;;
8102;SDS011;4094;49.948;11.574;2023-05-24T06:30:50;8.07;;;7.10;;
8102;SDS011;4094;49.948;11.574;2023-05-24T06:33:19;11.40;;;7.43;;
8102;SDS011;4094;49.948;11.574;2023-05-24T06:35:49;9.30;;;6.70;;
8102;SDS011;4094;49.948;11.574;2023-05-24T06:38:20;11.00;;;7.23;;
8102;SDS011;4094;49.948;11.574;2023-05-24T06:40:49;10.53;;;7.33;;
8102;SDS011;4094;49.948;11.574;2023-05-24T06:43:21;8.70;;;7.13;;
8102;SDS011;4094;49.948;11.574;2023-05-24T06:45:50;9.73;;;7.20;;
8102;SDS011;4094;49.948;11.574;2023-05-24T06:48:20;9.63;;;6.67;;
8102;SDS011;4094;49.948;11.574;2023-05-24T06:50:49;9.40;;;7.40;;
8102;SDS011;4094;49.948;11.574;2023-05-24T06:53:18;9.40;;;7.30;;
8102;SDS011;4094;49.948;11.574;2023-05-24T06:55:49;12.83;;;7.90;;
8102;SDS011;4094;49.948;11.574;2023-05-24T06:58:20;10.57;;;6.90;;
8102;SDS011;4094;49.948;11.574;2023-05-24T07:00:50;8.40;;;6.67;;
8102;SDS011;4094;49.948;11.574;2023-05-24T07:03:20;10.60;;;6.97;;
8102;SDS011;4094;49.948;11.574;2023-05-24T07:05:49;9.10;;;5.90;;
8102;SDS011;4094;49.948;11.574;2023-05-24T07:08:20;9.27;;;7.23;;
8102;SDS011;4094;49.948;11.574;2023-05-24T07:10:50;8.00;;;6.37;;
8102;SDS011;4094;49.948;11.574;2023-05-24T07:13:19;8.47;;;6.23;;
8102;SDS011;4094;49.948;11.574;2023-05-24T07:15:49;11.60;;;6.93;;
8102;SDS011;4094;49.948;11.574;2023-05-24T07:18:18;13.47;;;7.20;;
8102;SDS011;4094;49.948;11.574;2023-05-24T07:20:48;11.53;;;6.87;;
8102;SDS011;4094;49.948;11.574;2023-05-24T07:23:17;10.10;;;6.97;;
8102;SDS011;4094;49.948;11.574;2023-05-24T07:25:48;10.90;;;7.33;;
8102;SDS011;4094;49.948;11.574;2023-05-24T07:28:17;9.27;;;7.60;;
8102;SDS011;4094;49.948;11.574;2023-05-24T07:30:47;8.87;;;7.03;;
8102;SDS011;4094;49.948;11.574;2023-05-24T07:33:17;10.47;;;6.93;;
8102;SDS011;4094;49.948;11.574;2023-05-24T07:35:47;9.20;;;6.87;;
8102;SDS011;4094;49.948;11.574;2023-05-24T07:38:17;9.50;;;6.17;;
8102;SDS011;4094;49.948;11.574;2023-05-24T07:40:48;10.47;;;6.73;;
8102;SDS011;4094;49.948;11.574;2023-05-24T07:43:19;10.57;;;7.30;;
8102;SDS011;4094;49.948;11.574;2023-05-24T07:45:48;9.07;;;6.60;;
8102;SDS011;4094;49.948;11.574;2023-05-24T07:48:17;10.40;;;6.97;;
8102;SDS011;4094;49.948;11.574;2023-05-24T07:50:47;10.27;;;7.17;;
8102;SDS011;4094;49.948;11.574;2023-05-24T07:53:19;9.83;;;7.30;;
8102;SDS011;4094;49.948;11.574;2023-05-24T07:55:50;9.17;;;6.70;;
8102;SDS011;4094;49.948;11.574;2023-05-24T07:58:19;8.40;;;6.30;;
8102;SDS011;4094;49.948;11.574;2023-05-24T08:00:49;13.23;;;7.00;;
8102;SDS011;4094;49.948;11.574;2023-05-24T08:03:18;10.03;;;6.47;;
8102;SDS011;4094;49.948;11.574;2023-05-24T08:05:49;11.13;;;6.70;;
8102;SDS011;4094;49.948;11.574;2023-05-24T08:08:18;9.53;;;6.53;;
8102;SDS011;4094;49.948;11.574;2023-05-24T08:10:47;9.43;;;6.90;;
8102;SDS011;4094;49.948;11.574;2023-05-24T08:13:18;8.83;;;6.33;;
8102;SDS011;4094;49.948;11.574;2023-05-24T08:15:47;11.23;;;6.50;;
8102;SDS011;4094;49.948;11.574;2023-05-24T08:18:16;10.07;;;6.40;;
8102;SDS011;4094;49.948;11.574;2023-05-24T08:20:45;9.80;;;6.87;;
8102;SDS011;4094;49.948;11.574;2023-05-24T08:23:14;8.00;;;6.87;;
8102;SDS011;4094;49.948;11.574;2023-05-24T08:25:43;10.03;;;6.80;;
8102;SDS011;4094;49.948;11.574;2023-05-24T08:28:12;11.30;;;6.50;;
8102;SDS011;4094;49.948;11.574;2023-05-24T08:30:44;13.70;;;6.50;;
8102;SDS011;4094;49.948;11.574;2023-05-24T08:33:14;16.57;;;7.47;;
8102;SDS011;4094;49.948;11.574;2023-05-24T08:35:46;10.80;;;6.73;;
8102;SDS011;4094;49.948;11.574;2023-05-24T08:38:15;11.43;;;7.13;;
8102;SDS011;4094;49.948;11.574;2023-05-24T08:40:46;9.33;;;7.07;;
8102;SDS011;4094;49.948;11.574;2023-05-24T08:43:15;9.23;;;7.00;;
8102;SDS011;4094;49.948;11.574;2023-05-24T08:45:47;7.83;;;6.47;;
8102;SDS011;4094;49.948;11.574;2023-05-24T08:48:18;12.03;;;6.77;;
8102;SDS011;4094;49.948;11.574;2023-05-24T08:50:48;10.47;;;6.60;;
8102;SDS011;4094;49.948;11.574;2023-05-24T08:53:18;8.33;;;6.77;;
8102;SDS011;4094;49.948;11.574;2023-05-24T08:55:49;11.67;;;6.97;;
8102;SDS011;4094;49.948;11.574;2023-05-24T08:58:20;7.40;;;6.70;;
8102;SDS011;4094;49.948;11.574;2023-05-24T09:00:50;9.57;;;6.83;;
8102;SDS011;4094;49.948;11.574;2023-05-24T09:03:19;9.20;;;6.40;;
8102;SDS011;4094;49.948;11.574;2023-05-24T09:05:50;12.00;;;6.97;;
8102;SDS011;4094;49.948;11.574;2023-05-24T09:08:20;7.83;;;6.67;;
8102;SDS011;4094;49.948;11.574;2023-05-24T09:10:50;8.77;;;6.60;;
8102;SDS011;4094;49.948;11.574;2023-05-24T09:13:22;8.73;;;6.43;;
8102;SDS011;4094;49.948;11.574;2023-05-24T09:15:53;13.13;;;8.93;;
8102;SDS011;4094;49.948;11.574;2023-05-24T09:18:23;10.43;;;8.17;;
8102;SDS011;4094;49.948;11.574;2023-05-24T09:20:52;9.10;;;6.83;;
8102;SDS011;4094;49.948;11.574;2023-05-24T09:23:23;15.10;;;8.07;;
8102;SDS011;4094;49.948;11.574;2023-05-24T09:25:54;11.70;;;8.10;;
8102;SDS011;4094;49.948;11.574;2023-05-24T09:28:23;9.77;;;7.23;;
8102;SDS011;4094;49.948;11.574;2023-05-24T09:31:00;8.60;;;6.57;;
8102;SDS011;4094;49.948;11.574;2023-05-24T09:33:34;10.90;;;7.10;;
8102;SDS011;4094;49.948;11.574;2023-05-24T09:36:04;11.43;;;7.47;;
8102;SDS011;4094;49.948;11.574;2023-05-24T09:38:34;9.77;;;6.33;;
8102;SDS011;4094;49.948;11.574;2023-05-24T09:41:04;9.67;;;6.73;;
8102;SDS011;4094;49.948;11.574;2023-05-24T09:43:45;10.50;;;6.07;;
8102;SDS011;4094;49.948;11.574;2023-05-24T09:46:16;9.50;;;6.60;;
8102;SDS011;4094;49.948;11.574;2023-05-24T09:48:55;10.43;;;7.23;;
8102;SDS011;4094;49.948;11.574;2023-05-24T09:51:25;12.77;;;7.20;;
8102;SDS011;4094;49.948;11.574;2023-05-24T09:53:59;11.27;;;7.23;;
8102;SDS011;4094;49.948;11.574;2023-05-24T09:56:30;12.03;;;7.13;;
8102;SDS011;4094;49.948;11.574;2023-05-24T09:59:05;11.30;;;6.47;;
8102;SDS011;4094;49.948;11.574;2023-05-24T10:01:37;11.77;;;7.00;;
8102;SDS011;4094;49.948;11.574;2023-05-24T10:04:07;9.30;;;6.93;;
8102;SDS011;4094;49.948;11.574;2023-05-24T10:06:37;14.07;;;7.73;;
8102;SDS011;4094;49.948;11.574;2023-05-24T10:09:09;8.27;;;6.77;;
8102;SDS011;4094;49.948;11.574;2023-05-24T10:11:40;10.07;;;6.67;;
8102;SDS011;4094;49.948;11.574;2023-05-24T10:14:10;11.37;;;6.40;;
8102;SDS011;4094;49.948;11.574;2023-05-24T10:16:41;8.83;;;6.60;;
8102;SDS011;4094;49.948;11.574;2023-05-24T10:19:11;10.37;;;7.00;;
8102;SDS011;4094;49.948;11.574;2023-05-24T10:21:40;9.07;;;6.93;;
8102;SDS011;4094;49.948;11.574;2023-05-24T10:24:12;11.07;;;7.00;;
8102;SDS011;4094;49.948;11.574;2023-05-24T10:26:44;12.13;;;6.87;;
8102;SDS011;4094;49.948;11.574;2023-05-24T10:29:16;10.20;;;6.70;;
8102;SDS011;4094;49.948;11.574;2023-05-24T10:32:13;7.40;;;6.37;;
8102;SDS011;4094;49.948;11.574;2023-05-24T10:35:49;10.20;;;6.90;;
8102;SDS011;4094;49.948;11.574;2023-05-24T10:38:21;10.47;;;6.97;;
8102;SDS011;4094;49.948;11.574;2023-05-24T10:40:51;11.53;;;7.07;;
8102;SDS011;4094;49.948;11.574;2023-05-24T10:43:20;7.93;;;6.13;;
8102;SDS011;4094;49.948;11.574;2023-05-24T10:45:49;10.20;;;7.27;;
8102;SDS011;4094;49.948;11.574;2023-05-24T10:51:28;7.70;;;6.37;;
8102;SDS011;4094;49.948;11.574;2023-05-24T10:54:12;7.47;;;6.53;;
8102;SDS011;4094;49.948;11.574;2023-05-24T10:56:43;10.40;;;6.73;;
8102;SDS011;4094;49.948;11.574;2023-05-24T10:59:23;9.80;;;6.53;;
8102;SDS011;4094;49.948;11.574;2023-05-24T11:01:57;8.97;;;6.70;;
8102;SDS011;4094;49.948;11.574;2023-05-24T11:04:32;12.30;;;6.70;;
8102;SDS011;4094;49.948;11.574;2023-05-24T11:07:06;9.33;;;6.70;;
8102;SDS011;4094;49.948;11.574;2023-05-24T11:09:37;7.00;;;5.87;;
8102;SDS011;4094;49.948;11.574;2023-05-24T11:12:13;9.67;;;6.13;;
8102;SDS011;4094;49.948;11.574;2023-05-24T11:14:46;10.10;;;6.33;;
8102;SDS011;4094;49.948;11.574;2023-05-24T11:17:17;9.70;;;6.57;;
8102;SDS011;4094;49.948;11.574;2023-05-24T11:19:50;8.17;;;6.10;;
8102;SDS011;4094;49.948;11.574;2023-05-24T11:22:21;10.20;;;6.43;;
8102;SDS011;4094;49.948;11.574;2023-05-24T11:24:51;8.80;;;5.53;;
8102;SDS011;4094;49.948;11.574;2023-05-24T11:27:21;10.57;;;6.37;;
8102;SDS011;4094;49.948;11.574;2023-05-24T11:29:51;8.47;;;6.20;;
8102;SDS011;4094;49.948;11.574;2023-05-24T11:32:22;10.80;;;6.73;;
8102;SDS011;4094;49.948;11.574;2023-05-24T11:34:54;11.00;;;6.83;;
8102;SDS011;4094;49.948;11.574;2023-05-24T11:37:24;10.63;;;6.27;;
8102;SDS011;4094;49.948;11.574;2023-05-24T11:40:12;9.03;;;6.43;;
8102;SDS011;4094;49.948;11.574;2023-05-24T11:42:42;14.70;;;6.93;;
8102;SDS011;4094;49.948;11.574;2023-05-24T11:45:13;6.97;;;6.27;;
8102;SDS011;4094;49.948;11.574;2023-05-24T11:47:42;9.23;;;6.57;;
8102;SDS011;4094;49.948;11.574;2023-05-24T11:50:15;13.87;;;6.87;;
8102;SDS011;4094;49.948;11.574;2023-05-24T11:52:59;7.30;;;6.03;;
8102;SDS011;4094;49.948;11.574;2023-05-24T11:55:30;9.80;;;6.70;;
8102;SDS011;4094;49.948;11.574;2023-05-24T11:57:59;9.30;;;6.37;;
8102;SDS011;4094;49.948;11.574;2023-05-24T12:00:32;8.20;;;6.47;;
8102;SDS011;4094;49.948;11.574;2023-05-24T12:03:02;9.30;;;6.57;;
8102;SDS011;4094;49.948;11.574;2023-05-24T12:05:35;10.93;;;5.87;;
8102;SDS011;4094;49.948;11.574;2023-05-24T12:08:06;10.63;;;6.13;;
8102;SDS011;4094;49.948;11.574;2023-05-24T12:10:39;8.53;;;5.63;;
8102;SDS011;4094;49.948;11.574;2023-05-24T12:13:18;9.77;;;6.03;;
8102;SDS011;4094;49.948;11.574;2023-05-24T12:15:49;11.07;;;6.40;;
8102;SDS011;4094;49.948;11.574;2023-05-24T12:18:23;8.40;;;6.13;;
8102;SDS011;4094;49.948;11.574;2023-05-24T12:20:54;7.33;;;5.50;;
8102;SDS011;4094;49.948;11.574;2023-05-24T12:23:24;9.17;;;5.70;;
8102;SDS011;4094;49.948;11.574;2023-05-24T12:25:56;8.10;;;5.70;;
8102;SDS011;4094;49.948;11.574;2023-05-24T12:28:26;8.73;;;5.43;;
8102;SDS011;4094;49.948;11.574;2023-05-24T12:31:02;13.50;;;6.27;;
8102;SDS011;4094;49.948;11.574;2023-05-24T12:33:32;9.90;;;5.93;;
8102;SDS011;4094;49.948;11.574;2023-05-24T12:36:03;8.77;;;5.70;;
8102;SDS011;4094;49.948;11.574;2023-05-24T12:38:33;9.10;;;5.67;;
8102;SDS011;4094;49.948;11.574;2023-05-24T12:41:02;9.13;;;5.53;;
8102;SDS011;4094;49.948;11.574;2023-05-24T12:43:40;7.03;;;5.33;;
8102;SDS011;4094;49.948;11.574;2023-05-24T12:46:11;10.03;;;5.70;;
8102;SDS011;4094;49.948;11.574;2023-05-24T12:48:40;9.47;;;5.30;;
8102;SDS011;4094;49.948;11.574;2023-05-24T12:51:23;9.07;;;5.60;;
8102;SDS011;4094;49.948;11.574;2023-05-24T12:54:31;10.77;;;5.30;;
8102;SDS011;4094;49.948;11.574;2023-05-24T12:57:00;7.23;;;5.30;;
8102;SDS011;4094;49.948;11.574;2023-05-24T12:59:29;7.57;;;5.20;;
8102;SDS011;4094;49.948;11.574;2023-05-24T13:01:58;8.87;;;4.90;;
8102;SDS011;4094;49.948;11.574;2023-05-24T13:04:28;9.67;;;5.00;;
8102;SDS011;4094;49.948;11.574;2023-05-24T13:07:02;9.47;;;5.43;;
8102;SDS011;4094;49.948;11.574;2023-05-24T13:09:31;9.23;;;4.70;;
8102;SDS011;4094;49.948;11.574;2023-05-24T13:12:01;11.90;;;5.10;;
8102;SDS011;4094;49.948;11.574;2023-05-24T13:14:31;10.23;;;5.40;;
8102;SDS011;4094;49.948;11.574;2023-05-24T13:17:00;10.73;;;5.17;;
8102;SDS011;4094;49.948;11.574;2023-05-24T13:19:30;6.20;;;4.87;;
8102;SDS011;4094;49.948;11.574;2023-05-24T13:21:59;6.90;;;4.70;;
8102;SDS011;4094;49.948;11.574;2023-05-24T13:24:30;8.17;;;4.40;;
8102;SDS011;4094;49.948;11.574;2023-05-24T13:26:59;12.17;;;5.30;;
8102;SDS011;4094;49.948;11.574;2023-05-24T13:29:29;7.47;;;5.00;;
8102;SDS011;4094;49.948;11.574;2023-05-24T13:32:09;7.80;;;4.90;;
8102;SDS011;4094;49.948;11.574;2023-05-24T13:34:38;9.63;;;5.27;;
8102;SDS011;4094;49.948;11.574;2023-05-24T13:37:07;5.83;;;4.63;;
8102;SDS011;4094;49.948;11.574;2023-05-24T13:39:38;10.53;;;5.50;;
8102;SDS011;4094;49.948;11.574;2023-05-24T13:42:07;8.60;;;5.13;;
8102;SDS011;4094;49.948;11.574;2023-05-24T13:44:37;10.27;;;5.10;;
8102;SDS011;4094;49.948;11.574;2023-05-24T13:47:08;7.40;;;4.77;;
8102;SDS011;4094;49.948;11.574;2023-05-24T13:49:44;9.93;;;5.10;;
8102;SDS011;4094;49.948;11.574;2023-05-24T13:52:14;8.47;;;4.87;;
8102;SDS011;4094;49.948;11.574;2023-05-24T13:54:47;8.47;;;5.27;;
8102;SDS011;4094;49.948;11.574;2023-05-24T13:57:17;6.40;;;4.70;;
8102;SDS011;4094;49.948;11.574;2023-05-24T13:59:50;9.57;;;5.27;;
8102;SDS011;4094;49.948;11.574;2023-05-24T14:02:19;8.87;;;4.63;;
8102;SDS011;4094;49.948;11.574;2023-05-24T14:04:48;11.63;;;5.13;;
8102;SDS011;4094;49.948;11.574;2023-05-24T14:07:18;7.93;;;4.80;;
8102;SDS011;4094;49.948;11.574;2023-05-24T14:09:49;7.17;;;5.00;;
8102;SDS011;4094;49.948;11.574;2023-05-24T14:12:19;7.87;;;4.97;;
8102;SDS011;4094;49.948;11.574;2023-05-24T14:14:48;7.33;;;4.30;;
8102;SDS011;4094;49.948;11.574;2023-05-24T14:17:20;6.27;;;4.47;;
8102;SDS011;4094;49.948;11.574;2023-05-24T14:19:49;6.47;;;4.70;;
8102;SDS011;4094;49.948;11.574;2023-05-24T14:22:18;7.90;;;4.93;;
8102;SDS011;4094;49.948;11.574;2023-05-24T14:24:50;8.10;;;5.00;;
8102;SDS011;4094;49.948;11.574;2023-05-24T14:27:21;8.60;;;4.20;;
8102;SDS011;4094;49.948;11.574;2023-05-24T14:29:50;9.93;;;4.57;;
8102;SDS011;4094;49.948;11.574;2023-05-24T14:32:19;7.20;;;4.80;;
8102;SDS011;4094;49.948;11.574;2023-05-24T14:34:48;12.30;;;5.00;;
8102;SDS011;4094;49.948;11.574;2023-05-24T14:37:21;10.50;;;4.93;;
8102;SDS011;4094;49.948;11.574;2023-05-24T14:39:51;6.50;;;4.70;;
8102;SDS011;4094;49.948;11.574;2023-05-24T14:42:20;7.73;;;4.70;;
8102;SDS011;4094;49.948;11.574;2023-05-24T14:44:50;10.27;;;4.70;;
8102;SDS011;4094;49.948;11.574;2023-05-24T14:47:19;6.70;;;4.43;;
8102;SDS011;4094;49.948;11.574;2023-05-24T14:49:48;8.17;;;4.80;;
8102;SDS011;4094;49.948;11.574;2023-05-24T14:52:17;8.20;;;4.77;;
8102;SDS011;4094;49.948;11.574;2023-05-24T14:54:47;7.80;;;4.50;;
8102;SDS011;4094;49.948;11.574;2023-05-24T14:57:17;6.07;;;4.20;;
8102;SDS011;4094;49.948;11.574;2023-05-24T14:59:46;6.80;;;4.40;;
8102;SDS011;4094;49.948;11.574;2023-05-24T15:02:16;8.07;;;4.60;;
8102;SDS011;4094;49.948;11.574;2023-05-24T15:04:45;4.80;;;4.20;;
8102;SDS011;4094;49.948;11.574;2023-05-24T15:07:14;6.40;;;4.50;;
8102;SDS011;4094;49.948;11.574;2023-05-24T15:09:43;6.50;;;4.37;;
8102;SDS011;4094;49.948;11.574;2023-05-24T15:12:12;6.50;;;4.50;;
8102;SDS011;4094;49.948;11.574;2023-05-24T15:14:43;7.83;;;4.63;;
8102;SDS011;4094;49.948;11.574;2023-05-24T15:17:12;7.47;;;4.63;;
8102;SDS011;4094;49.948;11.574;2023-05-24T15:19:42;9.00;;;4.80;;
8102;SDS011;4094;49.948;11.574;2023-05-24T15:22:11;9.50;;;4.53;;